sensor_id;sensor_type;location;lat;lon;timestamp;P1;durP1;ratioP1;P2;durP2;ratioP2
14209;SDS011;7188;56.070;12.698;2024-01-30T00:01:58;10.67;;;6.67;;
14209;SDS011;7188;56.070;12.698;2024-01-30T00:04:24;8.93;;;7.00;;
14209;SDS011;7188;56.070;12.698;2024-01-30T00:06:50;11.50;;;7.53;;
14209;SDS011;7188;56.070;12.698;2024-01-30T00:09:17;10.20;;;6.93;;
14209;SDS011;7188;56.070;12.698;2024-01-30T00:11:43;9.83;;;7.20;;
14209;SDS011;7188;56.070;12.698;2024-01-30T00:14:09;9.43;;;6.90;;
14209;SDS011;7188;56.070;12.698;2024-01-30T00:16:34;8.67;;;7.20;;
14209;SDS011;7188;56.070;12.698;2024-01-30T00:19:00;10.10;;;6.77;;
14209;SDS011;7188;56.070;12.698;2024-01-30T00:21:27;8.83;;;6.93;;
14209;SDS011;7188;56.070;12.698;2024-01-30T00:23:53;9.63;;;7.40;;
14209;SDS011;7188;56.070;12.698;2024-01-30T00:26:19;9.93;;;7.80;;
14209;SDS011;7188;56.070;12.698;2024-01-30T00:28:45;10.03;;;7.30;;
14209;SDS011;7188;56.070;12.698;2024-01-30T00:31:11;9.37;;;6.97;;
14209;SDS011;7188;56.070;12.698;2024-01-30T00:33:37;12.30;;;8.30;;
14209;SDS011;7188;56.070;12.698;2024-01-30T00:36:05;8.70;;;7.27;;
14209;SDS011;7188;56.070;12.698;2024-01-30T00:38:31;10.77;;;8.43;;
14209;SDS011;7188;56.070;12.698;2024-01-30T00:40:57;8.23;;;7.37;;
14209;SDS011;7188;56.070;12.698;2024-01-30T00:43:23;12.50;;;8.00;;
14209;SDS011;7188;56.070;12.698;2024-01-30T00:45:50;9.27;;;7.43;;
14209;SDS011;7188;56.070;12.698;2024-01-30T00:48:17;9.47;;;8.43;;
14209;SDS011;7188;56.070;12.698;2024-01-30T00:50:43;10.97;;;8.30;;
14209;SDS011;7188;56.070;12.698;2024-01-30T00:53:08;10.93;;;8.60;;
14209;SDS011;7188;56.070;12.698;2024-01-30T00:55:35;9.37;;;6.93;;
14209;SDS011;7188;56.070;12.698;2024-01-30T00:58:00;13.83;;;8.83;;
14209;SDS011;7188;56.070;12.698;2024-01-30T01:00:26;13.27;;;7.83;;
14209;SDS011;7188;56.070;12.698;2024-01-30T01:02:56;10.70;;;8.20;;
14209;SDS011;7188;56.070;12.698;2024-01-30T01:05:21;11.17;;;9.00;;
14209;SDS011;7188;56.070;12.698;2024-01-30T01:07:47;12.93;;;8.27;;
14209;SDS011;7188;56.070;12.698;2024-01-30T01:10:13;11.53;;;8.30;;
14209;SDS011;7188;56.070;12.698;2024-01-30T01:12:40;12.80;;;9.70;;
14209;SDS011;7188;56.070;12.698;2024-01-30T01:15:07;11.07;;;7.87;;
14209;SDS011;7188;56.070;12.698;2024-01-30T01:20:23;13.43;;;8.87;;
14209;SDS011;7188;56.070;12.698;2024-01-30T01:22:48;11.30;;;9.30;;
14209;SDS011;7188;56.070;12.698;2024-01-30T01:25:14;16.10;;;10.80;;
14209;SDS011;7188;56.070;12.698;2024-01-30T01:27:46;19.50;;;11.40;;
14209;SDS011;7188;56.070;12.698;2024-01-30T01:30:28;28.60;;;14.40;;
14209;SDS011;7188;56.070;12.698;2024-01-30T01:32:55;25.80;;;13.57;;
14209;SDS011;7188;56.070;12.698;2024-01-30T01:35:24;26.47;;;14.23;;
14209;SDS011;7188;56.070;12.698;2024-01-30T01:37:51;32.03;;;15.60;;
14209;SDS011;7188;56.070;12.698;2024-01-30T01:40:22;40.83;;;20.60;;
14209;SDS011;7188;56.070;12.698;2024-01-30T01:42:52;43.77;;;22.90;;
14209;SDS011;7188;56.070;12.698;2024-01-30T01:45:19;51.23;;;22.13;;
14209;SDS011;7188;56.070;12.698;2024-01-30T01:47:47;51.70;;;24.30;;
14209;SDS011;7188;56.070;12.698;2024-01-30T01:50:16;47.40;;;24.10;;
14209;SDS011;7188;56.070;12.698;2024-01-30T01:52:44;46.63;;;25.30;;
14209;SDS011;7188;56.070;12.698;2024-01-30T01:55:12;47.37;;;26.63;;
14209;SDS011;7188;56.070;12.698;2024-01-30T01:57:39;52.10;;;25.87;;
14209;SDS011;7188;56.070;12.698;2024-01-30T02:00:05;55.50;;;29.10;;
14209;SDS011;7188;56.070;12.698;2024-01-30T02:02:31;53.63;;;26.73;;
14209;SDS011;7188;56.070;12.698;2024-01-30T02:05:00;54.13;;;30.37;;
14209;SDS011;7188;56.070;12.698;2024-01-30T02:07:27;52.83;;;28.73;;
14209;SDS011;7188;56.070;12.698;2024-01-30T02:09:53;56.83;;;28.87;;
14209;SDS011;7188;56.070;12.698;2024-01-30T02:12:20;45.57;;;22.83;;
14209;SDS011;7188;56.070;12.698;2024-01-30T02:14:46;55.73;;;29.10;;
14209;SDS011;7188;56.070;12.698;2024-01-30T02:17:12;70.43;;;32.90;;
14209;SDS011;7188;56.070;12.698;2024-01-30T02:19:39;64.87;;;30.87;;
14209;SDS011;7188;56.070;12.698;2024-01-30T02:22:05;47.97;;;23.80;;
14209;SDS011;7188;56.070;12.698;2024-01-30T02:24:31;61.03;;;28.80;;
14209;SDS011;7188;56.070;12.698;2024-01-30T02:26:56;51.13;;;27.40;;
14209;SDS011;7188;56.070;12.698;2024-01-30T02:29:22;58.30;;;28.93;;
14209;SDS011;7188;56.070;12.698;2024-01-30T02:31:48;54.63;;;29.20;;
14209;SDS011;7188;56.070;12.698;2024-01-30T02:34:13;60.07;;;29.83;;
14209;SDS011;7188;56.070;12.698;2024-01-30T02:36:43;62.10;;;30.67;;
14209;SDS011;7188;56.070;12.698;2024-01-30T02:39:08;59.13;;;30.57;;
14209;SDS011;7188;56.070;12.698;2024-01-30T02:41:34;58.20;;;28.30;;
14209;SDS011;7188;56.070;12.698;2024-01-30T02:44:00;51.93;;;27.10;;
14209;SDS011;7188;56.070;12.698;2024-01-30T02:46:27;55.60;;;28.70;;
14209;SDS011;7188;56.070;12.698;2024-01-30T02:48:58;52.27;;;26.60;;
14209;SDS011;7188;56.070;12.698;2024-01-30T02:51:24;65.53;;;31.67;;
14209;SDS011;7188;56.070;12.698;2024-01-30T02:53:56;58.10;;;29.13;;
14209;SDS011;7188;56.070;12.698;2024-01-30T02:56:21;58.23;;;28.40;;
14209;SDS011;7188;56.070;12.698;2024-01-30T02:58:47;55.03;;;28.30;;
14209;SDS011;7188;56.070;12.698;2024-01-30T03:01:13;63.50;;;30.33;;
14209;SDS011;7188;56.070;12.698;2024-01-30T03:03:38;49.67;;;25.67;;
14209;SDS011;7188;56.070;12.698;2024-01-30T03:06:05;62.33;;;30.83;;
14209;SDS011;7188;56.070;12.698;2024-01-30T03:08:31;51.90;;;25.93;;
14209;SDS011;7188;56.070;12.698;2024-01-30T03:10:57;55.70;;;27.83;;
14209;SDS011;7188;56.070;12.698;2024-01-30T03:13:22;60.93;;;30.00;;
14209;SDS011;7188;56.070;12.698;2024-01-30T03:15:50;56.53;;;25.03;;
14209;SDS011;7188;56.070;12.698;2024-01-30T03:18:15;46.60;;;23.33;;
14209;SDS011;7188;56.070;12.698;2024-01-30T03:20:41;54.30;;;28.33;;
14209;SDS011;7188;56.070;12.698;2024-01-30T03:23:06;56.37;;;29.37;;
14209;SDS011;7188;56.070;12.698;2024-01-30T03:25:32;56.93;;;27.97;;
14209;SDS011;7188;56.070;12.698;2024-01-30T03:27:58;60.37;;;30.13;;
14209;SDS011;7188;56.070;12.698;2024-01-30T03:30:23;61.53;;;28.00;;
14209;SDS011;7188;56.070;12.698;2024-01-30T03:32:49;56.40;;;29.10;;
14209;SDS011;7188;56.070;12.698;2024-01-30T03:35:15;65.77;;;30.73;;
14209;SDS011;7188;56.070;12.698;2024-01-30T03:37:40;57.37;;;27.63;;
14209;SDS011;7188;56.070;12.698;2024-01-30T03:40:06;58.53;;;27.40;;
14209;SDS011;7188;56.070;12.698;2024-01-30T03:42:32;62.67;;;28.10;;
14209;SDS011;7188;56.070;12.698;2024-01-30T03:44:58;61.60;;;29.53;;
14209;SDS011;7188;56.070;12.698;2024-01-30T03:47:24;66.50;;;29.57;;
14209;SDS011;7188;56.070;12.698;2024-01-30T03:49:49;66.77;;;29.07;;
14209;SDS011;7188;56.070;12.698;2024-01-30T03:52:15;58.67;;;25.77;;
14209;SDS011;7188;56.070;12.698;2024-01-30T03:54:40;60.47;;;26.07;;
14209;SDS011;7188;56.070;12.698;2024-01-30T03:57:06;65.87;;;29.67;;
14209;SDS011;7188;56.070;12.698;2024-01-30T03:59:32;53.97;;;23.43;;
14209;SDS011;7188;56.070;12.698;2024-01-30T04:01:57;63.27;;;26.00;;
14209;SDS011;7188;56.070;12.698;2024-01-30T04:04:23;49.30;;;22.73;;
14209;SDS011;7188;56.070;12.698;2024-01-30T04:06:49;55.63;;;25.67;;
14209;SDS011;7188;56.070;12.698;2024-01-30T04:09:14;72.07;;;30.37;;
14209;SDS011;7188;56.070;12.698;2024-01-30T04:11:40;65.23;;;30.50;;
14209;SDS011;7188;56.070;12.698;2024-01-30T04:14:07;56.63;;;25.37;;
14209;SDS011;7188;56.070;12.698;2024-01-30T04:16:33;66.00;;;28.50;;
14209;SDS011;7188;56.070;12.698;2024-01-30T04:18:59;58.13;;;26.63;;
14209;SDS011;7188;56.070;12.698;2024-01-30T04:21:24;67.07;;;29.70;;
14209;SDS011;7188;56.070;12.698;2024-01-30T04:23:50;65.13;;;29.23;;
14209;SDS011;7188;56.070;12.698;2024-01-30T04:26:16;61.17;;;26.77;;
14209;SDS011;7188;56.070;12.698;2024-01-30T04:28:43;67.97;;;28.80;;
14209;SDS011;7188;56.070;12.698;2024-01-30T04:31:09;63.50;;;28.23;;
14209;SDS011;7188;56.070;12.698;2024-01-30T04:33:50;75.17;;;31.40;;
14209;SDS011;7188;56.070;12.698;2024-01-30T04:36:22;59.17;;;26.50;;
14209;SDS011;7188;56.070;12.698;2024-01-30T04:38:48;59.37;;;27.83;;
14209;SDS011;7188;56.070;12.698;2024-01-30T04:41:13;49.53;;;24.17;;
14209;SDS011;7188;56.070;12.698;2024-01-30T04:43:39;62.03;;;29.30;;
14209;SDS011;7188;56.070;12.698;2024-01-30T04:46:04;66.10;;;30.40;;
14209;SDS011;7188;56.070;12.698;2024-01-30T04:48:30;54.03;;;24.73;;
14209;SDS011;7188;56.070;12.698;2024-01-30T04:51:00;61.90;;;29.07;;
14209;SDS011;7188;56.070;12.698;2024-01-30T04:53:29;73.50;;;32.33;;
14209;SDS011;7188;56.070;12.698;2024-01-30T04:55:55;64.53;;;28.77;;
14209;SDS011;7188;56.070;12.698;2024-01-30T04:58:21;65.30;;;27.53;;
14209;SDS011;7188;56.070;12.698;2024-01-30T05:00:47;71.77;;;30.43;;
14209;SDS011;7188;56.070;12.698;2024-01-30T05:03:16;68.10;;;29.07;;
14209;SDS011;7188;56.070;12.698;2024-01-30T05:05:42;63.77;;;29.43;;
14209;SDS011;7188;56.070;12.698;2024-01-30T05:08:08;69.77;;;30.00;;
14209;SDS011;7188;56.070;12.698;2024-01-30T05:10:33;85.93;;;32.47;;
14209;SDS011;7188;56.070;12.698;2024-01-30T05:13:02;103.37;;;32.83;;
14209;SDS011;7188;56.070;12.698;2024-01-30T05:15:28;67.50;;;26.03;;
14209;SDS011;7188;56.070;12.698;2024-01-30T05:17:53;89.50;;;32.90;;
14209;SDS011;7188;56.070;12.698;2024-01-30T05:20:19;90.83;;;33.00;;
14209;SDS011;7188;56.070;12.698;2024-01-30T05:22:45;90.47;;;33.20;;
14209;SDS011;7188;56.070;12.698;2024-01-30T05:25:14;100.60;;;32.83;;
14209;SDS011;7188;56.070;12.698;2024-01-30T05:27:39;79.23;;;33.37;;
14209;SDS011;7188;56.070;12.698;2024-01-30T05:30:06;89.10;;;34.40;;
14209;SDS011;7188;56.070;12.698;2024-01-30T05:32:32;71.97;;;28.27;;
14209;SDS011;7188;56.070;12.698;2024-01-30T05:34:58;94.70;;;32.60;;
14209;SDS011;7188;56.070;12.698;2024-01-30T05:37:23;80.00;;;32.80;;
14209;SDS011;7188;56.070;12.698;2024-01-30T05:39:49;76.00;;;32.43;;
14209;SDS011;7188;56.070;12.698;2024-01-30T05:42:15;79.23;;;32.33;;
14209;SDS011;7188;56.070;12.698;2024-01-30T05:44:42;95.50;;;29.80;;
14209;SDS011;7188;56.070;12.698;2024-01-30T05:47:07;67.27;;;28.00;;
14209;SDS011;7188;56.070;12.698;2024-01-30T05:49:38;71.97;;;28.50;;
14209;SDS011;7188;56.070;12.698;2024-01-30T05:52:04;77.50;;;30.87;;
14209;SDS011;7188;56.070;12.698;2024-01-30T05:54:30;59.13;;;24.40;;
14209;SDS011;7188;56.070;12.698;2024-01-30T05:56:56;64.27;;;26.37;;
14209;SDS011;7188;56.070;12.698;2024-01-30T05:59:21;66.60;;;24.13;;
14209;SDS011;7188;56.070;12.698;2024-01-30T06:01:47;66.73;;;27.30;;
14209;SDS011;7188;56.070;12.698;2024-01-30T06:04:13;68.90;;;26.80;;
14209;SDS011;7188;56.070;12.698;2024-01-30T06:06:39;72.57;;;26.17;;
14209;SDS011;7188;56.070;12.698;2024-01-30T06:09:05;64.70;;;26.83;;
14209;SDS011;7188;56.070;12.698;2024-01-30T06:11:47;74.70;;;29.63;;
14209;SDS011;7188;56.070;12.698;2024-01-30T06:14:21;59.73;;;25.20;;
14209;SDS011;7188;56.070;12.698;2024-01-30T06:16:47;69.37;;;26.63;;
14209;SDS011;7188;56.070;12.698;2024-01-30T06:19:19;65.53;;;26.87;;
14209;SDS011;7188;56.070;12.698;2024-01-30T06:21:44;65.73;;;25.70;;
14209;SDS011;7188;56.070;12.698;2024-01-30T06:24:10;82.60;;;27.00;;
14209;SDS011;7188;56.070;12.698;2024-01-30T06:26:38;74.87;;;26.47;;
14209;SDS011;7188;56.070;12.698;2024-01-30T06:29:03;64.37;;;25.30;;
14209;SDS011;7188;56.070;12.698;2024-01-30T06:31:29;74.67;;;28.23;;
14209;SDS011;7188;56.070;12.698;2024-01-30T06:33:56;100.30;;;29.70;;
14209;SDS011;7188;56.070;12.698;2024-01-30T06:36:21;69.90;;;27.57;;
14209;SDS011;7188;56.070;12.698;2024-01-30T06:38:47;64.07;;;24.73;;
14209;SDS011;7188;56.070;12.698;2024-01-30T06:41:12;72.07;;;28.10;;
14209;SDS011;7188;56.070;12.698;2024-01-30T06:43:38;67.23;;;26.73;;
14209;SDS011;7188;56.070;12.698;2024-01-30T06:46:04;78.87;;;30.00;;
14209;SDS011;7188;56.070;12.698;2024-01-30T06:48:30;70.40;;;25.90;;
14209;SDS011;7188;56.070;12.698;2024-01-30T06:50:56;84.03;;;28.63;;
14209;SDS011;7188;56.070;12.698;2024-01-30T06:53:22;72.90;;;27.23;;
14209;SDS011;7188;56.070;12.698;2024-01-30T06:55:48;98.93;;;27.90;;
14209;SDS011;7188;56.070;12.698;2024-01-30T06:58:14;83.13;;;30.43;;
14209;SDS011;7188;56.070;12.698;2024-01-30T07:00:40;79.40;;;27.80;;
14209;SDS011;7188;56.070;12.698;2024-01-30T07:03:05;78.37;;;29.87;;
14209;SDS011;7188;56.070;12.698;2024-01-30T07:05:31;74.23;;;27.50;;
14209;SDS011;7188;56.070;12.698;2024-01-30T07:07:57;75.37;;;29.80;;
14209;SDS011;7188;56.070;12.698;2024-01-30T07:10:23;76.77;;;28.27;;
14209;SDS011;7188;56.070;12.698;2024-01-30T07:12:48;76.70;;;29.80;;
14209;SDS011;7188;56.070;12.698;2024-01-30T07:15:14;76.67;;;29.90;;
14209;SDS011;7188;56.070;12.698;2024-01-30T07:17:43;84.70;;;31.07;;
14209;SDS011;7188;56.070;12.698;2024-01-30T07:20:18;76.60;;;27.17;;
14209;SDS011;7188;56.070;12.698;2024-01-30T07:22:45;77.50;;;30.00;;
14209;SDS011;7188;56.070;12.698;2024-01-30T07:25:11;78.67;;;27.57;;
14209;SDS011;7188;56.070;12.698;2024-01-30T07:27:36;94.57;;;28.57;;
14209;SDS011;7188;56.070;12.698;2024-01-30T07:30:02;82.87;;;31.87;;
14209;SDS011;7188;56.070;12.698;2024-01-30T07:32:28;83.43;;;29.63;;
14209;SDS011;7188;56.070;12.698;2024-01-30T07:34:53;77.83;;;29.63;;
14209;SDS011;7188;56.070;12.698;2024-01-30T07:37:19;127.17;;;30.30;;
14209;SDS011;7188;56.070;12.698;2024-01-30T07:39:45;88.50;;;29.90;;
14209;SDS011;7188;56.070;12.698;2024-01-30T07:42:10;68.77;;;25.17;;
14209;SDS011;7188;56.070;12.698;2024-01-30T07:44:36;82.60;;;27.20;;
14209;SDS011;7188;56.070;12.698;2024-01-30T07:47:02;82.87;;;28.77;;
14209;SDS011;7188;56.070;12.698;2024-01-30T07:49:28;66.73;;;27.20;;
14209;SDS011;7188;56.070;12.698;2024-01-30T07:51:53;68.90;;;26.90;;
14209;SDS011;7188;56.070;12.698;2024-01-30T07:54:31;80.27;;;31.90;;
14209;SDS011;7188;56.070;12.698;2024-01-30T07:56:58;76.17;;;28.90;;
14209;SDS011;7188;56.070;12.698;2024-01-30T07:59:25;72.67;;;25.60;;
14209;SDS011;7188;56.070;12.698;2024-01-30T08:04:45;72.03;;;24.13;;
14209;SDS011;7188;56.070;12.698;2024-01-30T08:07:13;76.77;;;25.40;;
14209;SDS011;7188;56.070;12.698;2024-01-30T08:09:39;81.13;;;33.00;;
14209;SDS011;7188;56.070;12.698;2024-01-30T08:12:05;72.50;;;27.70;;
14209;SDS011;7188;56.070;12.698;2024-01-30T08:14:31;81.17;;;25.10;;
14209;SDS011;7188;56.070;12.698;2024-01-30T08:16:57;68.00;;;27.00;;
14209;SDS011;7188;56.070;12.698;2024-01-30T08:19:22;66.90;;;23.70;;
14209;SDS011;7188;56.070;12.698;2024-01-30T08:21:48;73.23;;;24.67;;
14209;SDS011;7188;56.070;12.698;2024-01-30T08:24:13;64.00;;;24.07;;
14209;SDS011;7188;56.070;12.698;2024-01-30T08:26:39;60.23;;;24.17;;
14209;SDS011;7188;56.070;12.698;2024-01-30T08:29:05;82.77;;;26.43;;
14209;SDS011;7188;56.070;12.698;2024-01-30T08:31:30;66.27;;;23.63;;
14209;SDS011;7188;56.070;12.698;2024-01-30T08:33:56;58.43;;;22.17;;
14209;SDS011;7188;56.070;12.698;2024-01-30T08:36:22;73.60;;;23.97;;
14209;SDS011;7188;56.070;12.698;2024-01-30T08:38:48;62.57;;;23.97;;
14209;SDS011;7188;56.070;12.698;2024-01-30T08:41:13;63.70;;;23.57;;
14209;SDS011;7188;56.070;12.698;2024-01-30T08:43:39;58.43;;;22.63;;
14209;SDS011;7188;56.070;12.698;2024-01-30T08:46:05;66.90;;;25.37;;
14209;SDS011;7188;56.070;12.698;2024-01-30T08:48:30;64.27;;;24.20;;
14209;SDS011;7188;56.070;12.698;2024-01-30T08:50:56;68.10;;;25.13;;
14209;SDS011;7188;56.070;12.698;2024-01-30T08:53:22;67.10;;;24.07;;
14209;SDS011;7188;56.070;12.698;2024-01-30T08:55:48;62.23;;;23.77;;
14209;SDS011;7188;56.070;12.698;2024-01-30T08:58:13;67.73;;;24.53;;
14209;SDS011;7188;56.070;12.698;2024-01-30T09:00:40;65.87;;;23.03;;
14209;SDS011;7188;56.070;12.698;2024-01-30T09:03:06;63.30;;;22.80;;
14209;SDS011;7188;56.070;12.698;2024-01-30T09:05:31;65.93;;;23.67;;
14209;SDS011;7188;56.070;12.698;2024-01-30T09:07:57;62.20;;;23.10;;
14209;SDS011;7188;56.070;12.698;2024-01-30T09:10:23;67.87;;;23.40;;
14209;SDS011;7188;56.070;12.698;2024-01-30T09:12:48;73.83;;;24.67;;
14209;SDS011;7188;56.070;12.698;2024-01-30T09:15:14;63.90;;;23.30;;
14209;SDS011;7188;56.070;12.698;2024-01-30T09:17:40;64.97;;;22.83;;
14209;SDS011;7188;56.070;12.698;2024-01-30T09:20:05;59.87;;;22.33;;
14209;SDS011;7188;56.070;12.698;2024-01-30T09:22:32;67.90;;;23.27;;
14209;SDS011;7188;56.070;12.698;2024-01-30T09:24:57;68.43;;;23.83;;
14209;SDS011;7188;56.070;12.698;2024-01-30T09:30:26;73.10;;;25.77;;
14209;SDS011;7188;56.070;12.698;2024-01-30T09:32:51;63.00;;;23.27;;
14209;SDS011;7188;56.070;12.698;2024-01-30T09:35:17;74.97;;;27.03;;
14209;SDS011;7188;56.070;12.698;2024-01-30T09:37:42;73.33;;;25.30;;
14209;SDS011;7188;56.070;12.698;2024-01-30T09:40:08;76.53;;;25.33;;
14209;SDS011;7188;56.070;12.698;2024-01-30T09:42:34;70.83;;;24.33;;
14209;SDS011;7188;56.070;12.698;2024-01-30T09:45:01;61.30;;;24.70;;
14209;SDS011;7188;56.070;12.698;2024-01-30T09:47:31;66.30;;;23.93;;
14209;SDS011;7188;56.070;12.698;2024-01-30T09:50:09;59.80;;;22.63;;
14209;SDS011;7188;56.070;12.698;2024-01-30T09:52:36;69.53;;;24.97;;
14209;SDS011;7188;56.070;12.698;2024-01-30T09:55:02;58.73;;;22.67;;
14209;SDS011;7188;56.070;12.698;2024-01-30T09:57:28;55.03;;;21.70;;
14209;SDS011;7188;56.070;12.698;2024-01-30T09:59:54;58.23;;;20.53;;
14209;SDS011;7188;56.070;12.698;2024-01-30T10:02:20;57.53;;;20.50;;
14209;SDS011;7188;56.070;12.698;2024-01-30T10:04:49;53.80;;;19.80;;
14209;SDS011;7188;56.070;12.698;2024-01-30T10:07:16;60.80;;;20.00;;
14209;SDS011;7188;56.070;12.698;2024-01-30T10:09:42;48.47;;;17.97;;
14209;SDS011;7188;56.070;12.698;2024-01-30T10:12:11;53.47;;;19.33;;
14209;SDS011;7188;56.070;12.698;2024-01-30T10:14:41;58.13;;;19.20;;
14209;SDS011;7188;56.070;12.698;2024-01-30T10:17:08;39.30;;;14.80;;
14209;SDS011;7188;56.070;12.698;2024-01-30T10:22:50;51.47;;;15.10;;
14209;SDS011;7188;56.070;12.698;2024-01-30T10:25:16;47.07;;;13.33;;
14209;SDS011;7188;56.070;12.698;2024-01-30T10:27:42;44.40;;;13.07;;
14209;SDS011;7188;56.070;12.698;2024-01-30T10:30:08;43.20;;;12.80;;
14209;SDS011;7188;56.070;12.698;2024-01-30T10:32:34;33.70;;;12.17;;
14209;SDS011;7188;56.070;12.698;2024-01-30T10:34:59;30.33;;;12.63;;
14209;SDS011;7188;56.070;12.698;2024-01-30T10:37:25;25.97;;;11.03;;
14209;SDS011;7188;56.070;12.698;2024-01-30T10:39:52;28.23;;;11.70;;
14209;SDS011;7188;56.070;12.698;2024-01-30T10:42:20;23.63;;;10.37;;
14209;SDS011;7188;56.070;12.698;2024-01-30T10:45:07;27.57;;;9.97;;
14209;SDS011;7188;56.070;12.698;2024-01-30T10:47:36;29.80;;;8.90;;
14209;SDS011;7188;56.070;12.698;2024-01-30T10:50:03;25.43;;;9.23;;
14209;SDS011;7188;56.070;12.698;2024-01-30T10:52:29;34.47;;;9.43;;
14209;SDS011;7188;56.070;12.698;2024-01-30T10:54:56;22.50;;;8.60;;
14209;SDS011;7188;56.070;12.698;2024-01-30T10:57:25;27.47;;;9.23;;
14209;SDS011;7188;56.070;12.698;2024-01-30T10:59:58;20.10;;;8.57;;
14209;SDS011;7188;56.070;12.698;2024-01-30T11:02:25;25.77;;;8.13;;
14209;SDS011;7188;56.070;12.698;2024-01-30T11:04:55;21.73;;;7.93;;
14209;SDS011;7188;56.070;12.698;2024-01-30T11:07:26;32.97;;;7.53;;
14209;SDS011;7188;56.070;12.698;2024-01-30T11:10:00;31.53;;;7.67;;
14209;SDS011;7188;56.070;12.698;2024-01-30T11:12:28;16.60;;;6.57;;
14209;SDS011;7188;56.070;12.698;2024-01-30T11:15:05;37.97;;;7.00;;
14209;SDS011;7188;56.070;12.698;2024-01-30T11:20:11;35.80;;;5.63;;
14209;SDS011;7188;56.070;12.698;2024-01-30T11:22:37;13.30;;;5.30;;
14209;SDS011;7188;56.070;12.698;2024-01-30T11:25:03;19.67;;;5.57;;
14209;SDS011;7188;56.070;12.698;2024-01-30T11:27:30;22.67;;;4.63;;
14209;SDS011;7188;56.070;12.698;2024-01-30T11:30:01;9.93;;;5.00;;
14209;SDS011;7188;56.070;12.698;2024-01-30T11:32:27;13.27;;;4.67;;
14209;SDS011;7188;56.070;12.698;2024-01-30T11:34:53;17.87;;;5.43;;
14209;SDS011;7188;56.070;12.698;2024-01-30T11:37:20;25.37;;;5.70;;
14209;SDS011;7188;56.070;12.698;2024-01-30T11:39:50;28.50;;;6.17;;
14209;SDS011;7188;56.070;12.698;2024-01-30T11:42:16;30.90;;;6.20;;
14209;SDS011;7188;56.070;12.698;2024-01-30T11:44:46;17.80;;;5.27;;
14209;SDS011;7188;56.070;12.698;2024-01-30T11:47:12;16.77;;;5.90;;
14209;SDS011;7188;56.070;12.698;2024-01-30T11:49:39;28.53;;;6.20;;
14209;SDS011;7188;56.070;12.698;2024-01-30T11:52:05;17.03;;;6.43;;
14209;SDS011;7188;56.070;12.698;2024-01-30T11:54:30;22.47;;;7.47;;
14209;SDS011;7188;56.070;12.698;2024-01-30T11:56:56;39.53;;;7.53;;
14209;SDS011;7188;56.070;12.698;2024-01-30T11:59:40;40.10;;;8.47;;
14209;SDS011;7188;56.070;12.698;2024-01-30T12:02:06;24.60;;;7.57;;
14209;SDS011;7188;56.070;12.698;2024-01-30T12:04:32;32.67;;;8.90;;
14209;SDS011;7188;56.070;12.698;2024-01-30T12:06:58;20.80;;;8.10;;
14209;SDS011;7188;56.070;12.698;2024-01-30T12:09:24;25.30;;;7.90;;
14209;SDS011;7188;56.070;12.698;2024-01-30T12:11:49;18.77;;;7.63;;
14209;SDS011;7188;56.070;12.698;2024-01-30T12:14:16;22.50;;;8.00;;
14209;SDS011;7188;56.070;12.698;2024-01-30T12:16:42;18.37;;;7.67;;
14209;SDS011;7188;56.070;12.698;2024-01-30T12:19:08;19.67;;;8.40;;
14209;SDS011;7188;56.070;12.698;2024-01-30T12:21:34;37.00;;;8.67;;
14209;SDS011;7188;56.070;12.698;2024-01-30T12:24:00;19.03;;;9.50;;
14209;SDS011;7188;56.070;12.698;2024-01-30T12:26:26;25.97;;;9.87;;
14209;SDS011;7188;56.070;12.698;2024-01-30T12:28:55;26.00;;;10.53;;
14209;SDS011;7188;56.070;12.698;2024-01-30T12:31:26;26.87;;;10.60;;
14209;SDS011;7188;56.070;12.698;2024-01-30T12:33:59;22.00;;;10.07;;
14209;SDS011;7188;56.070;12.698;2024-01-30T12:36:25;35.20;;;10.10;;
14209;SDS011;7188;56.070;12.698;2024-01-30T12:38:51;24.70;;;9.17;;
14209;SDS011;7188;56.070;12.698;2024-01-30T12:41:17;34.50;;;12.47;;
14209;SDS011;7188;56.070;12.698;2024-01-30T12:43:43;53.73;;;13.07;;
14209;SDS011;7188;56.070;12.698;2024-01-30T12:46:09;36.23;;;12.03;;
14209;SDS011;7188;56.070;12.698;2024-01-30T12:48:35;32.83;;;11.50;;
14209;SDS011;7188;56.070;12.698;2024-01-30T12:51:01;34.67;;;11.70;;
14209;SDS011;7188;56.070;12.698;2024-01-30T12:53:26;48.00;;;12.23;;
14209;SDS011;7188;56.070;12.698;2024-01-30T12:56:08;43.80;;;12.17;;
14209;SDS011;7188;56.070;12.698;2024-01-30T12:58:33;38.33;;;12.90;;
14209;SDS011;7188;56.070;12.698;2024-01-30T13:00:59;34.57;;;11.77;;
14209;SDS011;7188;56.070;12.698;2024-01-30T13:06:15;24.60;;;11.50;;
14209;SDS011;7188;56.070;12.698;2024-01-30T13:08:41;29.17;;;11.30;;
14209;SDS011;7188;56.070;12.698;2024-01-30T13:11:06;35.03;;;10.77;;
14209;SDS011;7188;56.070;12.698;2024-01-30T13:13:32;23.77;;;10.53;;
14209;SDS011;7188;56.070;12.698;2024-01-30T13:15:58;23.73;;;8.47;;
14209;SDS011;7188;56.070;12.698;2024-01-30T13:18:23;31.83;;;10.27;;
14209;SDS011;7188;56.070;12.698;2024-01-30T13:20:49;29.60;;;10.07;;
14209;SDS011;7188;56.070;12.698;2024-01-30T13:23:14;31.60;;;10.10;;
14209;SDS011;7188;56.070;12.698;2024-01-30T13:25:40;25.63;;;8.77;;
14209;SDS011;7188;56.070;12.698;2024-01-30T13:28:06;20.40;;;8.87;;
14209;SDS011;7188;56.070;12.698;2024-01-30T13:30:31;20.27;;;8.63;;
14209;SDS011;7188;56.070;12.698;2024-01-30T13:32:57;19.53;;;8.57;;
14209;SDS011;7188;56.070;12.698;2024-01-30T13:35:22;28.43;;;8.63;;
14209;SDS011;7188;56.070;12.698;2024-01-30T13:37:48;16.23;;;8.57;;
14209;SDS011;7188;56.070;12.698;2024-01-30T13:40:14;23.87;;;9.40;;
14209;SDS011;7188;56.070;12.698;2024-01-30T13:42:41;22.10;;;9.53;;
14209;SDS011;7188;56.070;12.698;2024-01-30T13:45:19;24.27;;;9.23;;
14209;SDS011;7188;56.070;12.698;2024-01-30T13:47:45;21.73;;;10.13;;
14209;SDS011;7188;56.070;12.698;2024-01-30T13:50:11;20.57;;;9.90;;
14209;SDS011;7188;56.070;12.698;2024-01-30T13:52:41;19.57;;;10.23;;
14209;SDS011;7188;56.070;12.698;2024-01-30T13:55:07;16.13;;;10.07;;
14209;SDS011;7188;56.070;12.698;2024-01-30T13:57:32;18.87;;;11.40;;
14209;SDS011;7188;56.070;12.698;2024-01-30T14:00:00;18.70;;;11.10;;
14209;SDS011;7188;56.070;12.698;2024-01-30T14:02:30;22.10;;;10.10;;
14209;SDS011;7188;56.070;12.698;2024-01-30T14:04:56;18.00;;;9.87;;
14209;SDS011;7188;56.070;12.698;2024-01-30T14:07:21;22.50;;;11.73;;
14209;SDS011;7188;56.070;12.698;2024-01-30T14:09:47;20.10;;;11.30;;
14209;SDS011;7188;56.070;12.698;2024-01-30T14:12:13;26.93;;;13.33;;
14209;SDS011;7188;56.070;12.698;2024-01-30T14:14:39;21.80;;;12.23;;
14209;SDS011;7188;56.070;12.698;2024-01-30T14:17:05;23.97;;;12.77;;
14209;SDS011;7188;56.070;12.698;2024-01-30T14:19:32;24.67;;;13.23;;
14209;SDS011;7188;56.070;12.698;2024-01-30T14:22:01;27.40;;;15.17;;
14209;SDS011;7188;56.070;12.698;2024-01-30T14:27:29;29.93;;;16.07;;
14209;SDS011;7188;56.070;12.698;2024-01-30T14:29:55;29.67;;;17.70;;
14209;SDS011;7188;56.070;12.698;2024-01-30T14:32:21;30.53;;;17.63;;
14209;SDS011;7188;56.070;12.698;2024-01-30T14:34:48;29.97;;;17.70;;
14209;SDS011;7188;56.070;12.698;2024-01-30T14:37:14;30.13;;;17.37;;
14209;SDS011;7188;56.070;12.698;2024-01-30T14:39:40;34.57;;;18.63;;
14209;SDS011;7188;56.070;12.698;2024-01-30T14:42:06;34.23;;;19.07;;
14209;SDS011;7188;56.070;12.698;2024-01-30T14:44:32;29.97;;;18.13;;